Time;durP1;ratioP1;P1;durP2;ratioP2;P2;SDS_P1;SDS_P2;PMS_P1;PMS_P2;Temp;Humidity;BMP_temperature;BMP_pressure;BME280_temperature;BME280_humidity;BME280_pressure;Samples;Min_cycle;Max_cycle;Signal;HPM_P1;HPM_P2
2022/08/17 04:02:11;;;;;;;11.70;10.83;;;19.60;99.90;;;;;;5193745;23;20540;-63
2022/08/17 04:04:38;;;;;;;10.97;10.17;;;19.50;99.90;;;;;;4975304;28;20438;-64
2022/08/17 04:07:06;;;;;;;11.60;10.70;;;19.40;99.90;;;;;;4975401;28;20455;-64
2022/08/17 04:09:33;;;;;;;10.00;9.30;;;19.40;99.90;;;;;;4974662;28;20462;-63
2022/08/17 04:11:59;;;;;;;12.40;11.50;;;19.30;99.90;;;;;;4975311;28;20529;-63
2022/08/17 04:14:26;;;;;;;11.50;10.70;;;19.30;99.90;;;;;;4975021;28;20977;-64
2022/08/17 04:16:53;;;;;;;11.00;10.10;;;19.30;99.90;;;;;;4975218;28;20463;-64
2022/08/17 04:19:21;;;;;;;11.10;10.20;;;19.30;99.90;;;;;;4975251;28;20458;-64
2022/08/17 04:21:47;;;;;;;10.70;9.70;;;19.30;99.90;;;;;;4975127;28;20478;-64
2022/08/17 04:24:14;;;;;;;11.30;10.50;;;19.30;99.90;;;;;;4974832;28;20459;-63
2022/08/17 04:26:41;;;;;;;10.73;9.93;;;19.40;99.90;;;;;;4975016;28;20482;-63
2022/08/17 04:29:07;;;;;;;9.93;9.20;;;19.30;99.90;;;;;;4975038;28;20509;-63
2022/08/17 04:31:34;;;;;;;11.30;10.40;;;19.40;99.90;;;;;;4974960;28;20482;-63
2022/08/17 04:34:01;;;;;;;11.00;10.23;;;19.30;99.90;;;;;;4975015;28;20822;-63
2022/08/17 04:36:29;;;;;;;10.50;9.70;;;19.30;99.90;;;;;;4974970;28;20455;-64
2022/08/17 04:38:55;;;;;;;11.07;10.27;;;19.30;99.90;;;;;;4974680;28;20462;-64
2022/08/17 04:44:06;;;;;;;11.90;10.90;;;19.30;99.90;;;;;;4974990;28;20423;-64
2022/08/17 04:46:35;;;;;;;11.50;10.40;;;19.30;99.90;;;;;;4975176;28;20553;-64
2022/08/17 04:49:05;;;;;;;11.93;10.90;;;19.30;99.90;;;;;;4974976;28;20459;-64
2022/08/17 04:51:36;;;;;;;11.93;11.03;;;19.40;99.90;;;;;;4975918;28;20486;-64
2022/08/17 04:54:04;;;;;;;12.40;11.40;;;19.40;99.90;;;;;;4974563;28;20797;-64
2022/08/17 04:56:32;;;;;;;10.63;9.73;;;19.40;99.90;;;;;;4974702;28;20450;-64
2022/08/17 04:59:02;;;;;;;11.23;10.23;;;19.40;99.90;;;;;;4974581;28;20942;-64
2022/08/17 05:01:30;;;;;;;10.47;9.47;;;19.50;99.90;;;;;;4974324;28;20518;-64
2022/08/17 05:04:00;;;;;;;10.10;9.40;;;19.50;99.90;;;;;;4974271;28;20942;-63
2022/08/17 05:06:28;;;;;;;9.40;8.40;;;19.50;99.90;;;;;;4974523;28;20486;-64
2022/08/17 05:08:57;;;;;;;8.50;7.70;;;19.70;99.90;;;;;;4974595;28;20458;-64
2022/08/17 05:11:25;;;;;;;9.27;8.20;;;19.80;99.90;;;;;;4974703;28;20480;-64
2022/08/17 05:13:52;;;;;;;10.53;9.53;;;19.90;99.90;;;;;;4974728;28;20458;-64
2022/08/17 05:16:21;;;;;;;9.40;8.70;;;20.00;99.90;;;;;;4974630;28;20478;-64
2022/08/17 05:18:48;;;;;;;11.03;10.00;;;20.10;99.90;;;;;;4974612;28;20461;-64
2022/08/17 05:21:15;;;;;;;11.10;10.03;;;20.20;99.90;;;;;;4977393;28;20489;-63
2022/08/17 05:23:42;;;;;;;9.90;9.20;;;20.20;99.90;;;;;;4978407;28;20867;-63
2022/08/17 05:26:12;;;;;;;11.10;9.57;;;20.30;99.90;;;;;;4978094;28;20487;-63
2022/08/17 05:28:39;;;;;;;9.30;8.40;;;20.30;99.90;;;;;;4978244;28;20513;-63
2022/08/17 05:31:05;;;;;;;9.63;8.87;;;20.50;99.90;;;;;;4978016;28;20841;-63
2022/08/17 05:33:35;;;;;;;10.13;9.07;;;20.60;99.90;;;;;;4978439;28;20465;-63
2022/08/17 05:36:04;;;;;;;10.27;9.40;;;20.70;99.90;;;;;;4978108;28;20457;-64
2022/08/17 05:38:31;;;;;;;11.60;10.47;;;20.90;99.90;;;;;;4978049;28;20442;-64
2022/08/17 05:41:00;;;;;;;13.23;9.70;;;21.10;99.90;;;;;;4977773;28;20481;-64
2022/08/17 05:43:31;;;;;;;10.70;9.80;;;21.30;99.90;;;;;;4977700;28;20459;-63
2022/08/17 05:46:04;;;;;;;10.80;9.77;;;21.50;99.90;;;;;;4977380;28;21009;-64
2022/08/17 05:48:35;;;;;;;11.07;9.90;;;21.70;99.90;;;;;;4977545;28;20816;-63
2022/08/17 05:51:23;;;;;;;16.23;10.30;;;21.90;99.90;;;;;;4977747;28;20512;-63
2022/08/17 05:53:58;;;;;;;10.90;9.77;;;22.10;99.90;;;;;;4977876;28;20443;-64
2022/08/17 05:56:38;;;;;;;11.70;10.47;;;22.20;99.90;;;;;;4978333;28;20439;-64
2022/08/17 05:59:14;;;;;;;10.10;9.30;;;22.40;99.90;;;;;;4978323;28;20438;-64
2022/08/17 06:01:47;;;;;;;10.87;9.90;;;22.50;99.90;;;;;;4977368;28;20482;-63
2022/08/17 06:04:22;;;;;;;9.33;8.53;;;22.60;99.90;;;;;;4978137;28;20443;-63
2022/08/17 06:06:54;;;;;;;9.20;8.50;;;22.90;99.90;;;;;;4977550;28;20489;-62
2022/08/17 06:09:37;;;;;;;9.93;9.03;;;23.10;99.90;;;;;;4977369;28;20889;-62
2022/08/17 06:12:20;;;;;;;9.63;8.77;;;23.30;99.90;;;;;;4977938;28;20529;-62
2022/08/17 06:15:02;;;;;;;10.10;9.00;;;23.40;99.90;;;;;;4977699;28;20918;-62
2022/08/17 06:17:29;;;;;;;10.30;9.20;;;23.60;99.90;;;;;;4978363;28;20461;-62
2022/08/17 06:19:59;;;;;;;10.80;9.73;;;23.70;99.90;;;;;;4977298;28;20455;-62
2022/08/17 06:22:31;;;;;;;10.10;9.10;;;23.80;99.90;;;;;;4976928;28;20482;-62
2022/08/17 06:25:02;;;;;;;14.23;11.23;;;24.10;99.90;;;;;;4977367;28;20443;-62
2022/08/17 06:27:35;;;;;;;11.10;9.57;;;24.30;99.90;;;;;;4977189;28;20463;-62
2022/08/17 06:30:08;;;;;;;11.07;10.17;;;24.70;99.90;;;;;;4977215;28;20435;-63
2022/08/17 06:32:35;;;;;;;12.70;11.50;;;25.00;99.90;;;;;;4976482;28;20510;-63
2022/08/17 06:35:03;;;;;;;13.57;12.47;;;25.20;99.90;;;;;;4977051;28;20499;-63
2022/08/17 06:37:48;;;;;;;12.20;11.20;;;25.50;99.90;;;;;;4976993;28;20513;-63
2022/08/17 06:40:29;;;;;;;12.30;11.20;;;25.80;99.90;;;;;;4976996;28;20443;-63
2022/08/17 06:43:05;;;;;;;11.47;10.13;;;26.00;99.90;;;;;;4976877;28;20447;-63
2022/08/17 06:45:37;;;;;;;10.32;9.30;;;26.40;99.90;;;;;;4976287;28;20462;-63
2022/08/17 06:48:11;;;;;;;9.97;9.20;;;26.70;99.00;;;;;;4976924;28;20190;-63
2022/08/17 06:50:41;;;;;;;11.20;10.20;;;27.20;97.60;;;;;;4976760;28;20482;-63
2022/08/17 06:53:19;;;;;;;11.00;9.90;;;27.30;96.50;;;;;;4977589;28;20439;-63
2022/08/17 06:55:52;;;;;;;11.63;10.20;;;27.30;95.50;;;;;;4977039;28;20508;-62
2022/08/17 06:58:22;;;;;;;11.13;10.20;;;27.30;96.10;;;;;;4976325;28;20446;-63
2022/08/17 07:00:56;;;;;;;10.30;9.30;;;27.30;94.70;;;;;;4976536;28;20487;-63
2022/08/17 07:03:32;;;;;;;10.43;9.60;;;27.40;94.30;;;;;;4977114;28;20447;-63
2022/08/17 07:06:05;;;;;;;10.90;9.90;;;27.80;93.80;;;;;;4976511;28;20489;-63
2022/08/17 07:08:43;;;;;;;10.83;9.90;;;28.10;93.90;;;;;;4976461;28;20451;-63
2022/08/17 07:11:14;;;;;;;9.80;8.80;;;28.70;92.80;;;;;;4977119;28;20478;-63
2022/08/17 07:13:48;;;;;;;9.27;8.43;;;29.30;90.90;;;;;;4976101;28;20435;-63
2022/08/17 07:16:20;;;;;;;9.77;8.87;;;30.00;88.40;;;;;;4976908;28;20439;-64
2022/08/17 07:18:51;;;;;;;10.90;9.77;;;30.70;83.90;;;;;;4976763;28;20450;-63
2022/08/17 07:21:29;;;;;;;9.60;8.67;;;31.10;81.20;;;;;;4976176;28;20561;-63
2022/08/17 07:24:06;;;;;;;14.10;7.60;;;30.90;78.50;;;;;;4976089;28;20542;-63
2022/08/17 07:26:33;;;;;;;8.63;7.70;;;31.10;79.30;;;;;;4976050;28;20467;-63
2022/08/17 07:29:01;;;;;;;10.53;7.30;;;31.00;76.50;;;;;;4975999;28;20464;-63
2022/08/17 07:31:32;;;;;;;8.17;7.47;;;31.40;76.20;;;;;;4975994;28;20482;-62
2022/08/17 07:34:02;;;;;;;7.90;7.10;;;31.80;72.10;;;;;;4975948;28;20443;-62
2022/08/17 07:36:32;;;;;;;7.00;6.47;;;32.00;70.10;;;;;;4975735;28;20813;-62
2022/08/17 07:39:00;;;;;;;7.23;6.07;;;32.20;70.30;;;;;;4975711;28;20799;-62
2022/08/17 07:41:33;;;;;;;8.93;7.00;;;32.60;70.70;;;;;;4975607;28;20477;-62
2022/08/17 07:44:00;;;;;;;7.30;6.70;;;32.70;69.50;;;;;;4975599;28;20497;-63
2022/08/17 07:49:23;;;;;;;7.67;6.90;;;33.30;67.60;;;;;;4975713;28;20422;-63
2022/08/17 07:52:03;;;;;;;6.63;6.23;;;33.70;64.70;;;;;;4975736;28;20512;-63
2022/08/17 07:54:34;;;;;;;6.63;6.10;;;33.80;64.10;;;;;;4975475;28;20450;-62
2022/08/17 07:57:03;;;;;;;7.43;6.73;;;33.90;63.30;;;;;;4975587;28;20442;-62
2022/08/17 07:59:32;;;;;;;9.00;6.87;;;34.00;64.90;;;;;;4975181;28;20460;-65
2022/08/17 08:02:04;;;;;;;8.50;6.90;;;34.30;60.60;;;;;;4974977;28;20977;-63
2022/08/17 08:04:36;;;;;;;8.87;6.47;;;34.50;60.60;;;;;;4975648;28;20442;-63
2022/08/17 08:07:07;;;;;;;7.13;6.43;;;34.90;60.60;;;;;;4975616;28;20491;-65
2022/08/17 08:09:38;;;;;;;7.30;6.60;;;35.00;58.60;;;;;;4975606;28;20509;-65
2022/08/17 08:12:28;;;;;;;6.73;6.20;;;34.90;58.80;;;;;;4975859;28;20485;-63
2022/08/17 08:14:58;;;;;;;7.13;6.37;;;34.40;60.80;;;;;;4975233;28;20502;-63
2022/08/17 08:17:30;;;;;;;6.87;6.27;;;33.80;60.30;;;;;;4975205;28;20458;-69
2022/08/17 08:20:00;;;;;;;21.13;7.60;;;33.10;63.00;;;;;;4975268;28;20538;-70
2022/08/17 08:22:37;;;;;;;10.80;6.60;;;32.60;63.80;;;;;;4975229;28;20993;-69
2022/08/17 08:25:20;;;;;;;7.20;6.50;;;32.00;64.50;;;;;;4975149;28;20442;-69
2022/08/17 08:27:57;;;;;;;5.60;5.20;;;31.70;65.60;;;;;;4974648;28;20463;-69
2022/08/17 08:30:24;;;;;;;4.97;4.57;;;31.20;66.70;;;;;;4975951;28;20481;-67
2022/08/17 08:33:11;;;;;;;5.27;4.87;;;31.20;67.80;;;;;;4975032;28;20454;-67
2022/08/17 08:35:44;;;;;;;4.87;4.53;;;31.30;65.40;;;;;;4975057;28;20443;-67
2022/08/17 08:38:18;;;;;;;4.53;4.20;;;31.10;66.20;;;;;;4974961;28;20525;-67
2022/08/17 08:41:05;;;;;;;5.63;5.13;;;31.10;66.90;;;;;;4974799;28;20474;-67
2022/08/17 08:43:40;;;;;;;5.50;4.70;;;31.10;65.60;;;;;;4974747;28;20910;-67
2022/08/17 08:46:15;;;;;;;5.13;4.77;;;30.70;66.10;;;;;;4975044;28;20490;-67
2022/08/17 08:49:09;;;;;;;5.00;4.60;;;30.50;66.90;;;;;;4974924;28;20449;-68
2022/08/17 08:51:45;;;;;;;5.67;5.20;;;29.90;67.90;;;;;;4949227;28;20517;-67
2022/08/17 08:54:25;;;;;;;6.10;5.50;;;29.40;68.10;;;;;;4974885;28;20875;-67
2022/08/17 08:56:57;;;;;;;5.53;5.10;;;28.90;69.70;;;;;;4978636;28;20437;-67
2022/08/17 08:59:33;;;;;;;6.23;5.83;;;28.80;73.00;;;;;;4978406;28;20914;-67
2022/08/17 09:02:09;;;;;;;5.40;4.97;;;28.60;74.10;;;;;;4978498;28;20488;-67
2022/08/17 09:04:54;;;;;;;6.10;5.47;;;28.40;72.20;;;;;;4978748;28;20438;-67
2022/08/17 09:07:40;;;;;;;4.80;4.40;;;28.20;72.90;;;;;;4978602;28;20822;-67
2022/08/17 09:10:18;;;;;;;5.40;5.00;;;28.20;73.80;;;;;;4978603;28;20439;-67
2022/08/17 09:12:53;;;;;;;8.27;5.30;;;28.10;74.40;;;;;;4978329;28;20442;-68
2022/08/17 09:15:26;;;;;;;5.57;5.07;;;28.00;73.70;;;;;;4978538;28;20438;-67
2022/08/17 09:17:59;;;;;;;6.77;4.53;;;27.90;75.90;;;;;;4978207;28;20435;-67
2022/08/17 09:20:31;;;;;;;8.80;5.17;;;27.90;77.50;;;;;;4978112;28;20441;-67
2022/08/17 09:23:05;;;;;;;6.73;5.87;;;27.90;78.60;;;;;;4977715;28;20454;-67
2022/08/17 09:25:42;;;;;;;6.43;5.83;;;27.90;78.60;;;;;;4978302;28;20625;-67
2022/08/17 09:28:18;;;;;;;5.73;5.23;;;27.80;81.20;;;;;;4978134;28;20458;-67
2022/08/17 09:30:47;;;;;;;7.23;5.37;;;27.80;77.90;;;;;;4977890;28;20512;-67
2022/08/17 09:33:18;;;;;;;7.87;6.40;;;27.70;78.20;;;;;;4978148;28;20467;-67
2022/08/17 09:35:50;;;;;;;5.77;5.30;;;27.70;77.60;;;;;;4978361;28;20443;-67
2022/08/17 09:38:26;;;;;;;6.80;5.00;;;27.70;79.40;;;;;;4978123;28;20468;-67
2022/08/17 09:40:57;;;;;;;6.13;5.57;;;27.60;81.90;;;;;;4978022;28;20485;-66
2022/08/17 09:43:31;;;;;;;6.30;5.33;;;27.60;81.40;;;;;;4978201;28;20439;-66
2022/08/17 09:46:02;;;;;;;9.60;4.70;;;27.60;82.90;;;;;;4976904;28;20454;-65
2022/08/17 09:48:37;;;;;;;7.23;5.70;;;27.60;87.10;;;;;;4978152;28;20701;-64
2022/08/17 09:51:08;;;;;;;9.77;5.37;;;27.40;87.30;;;;;;4978671;28;20478;-66
2022/08/17 09:53:38;;;;;;;8.13;6.43;;;27.30;89.30;;;;;;4977786;28;20439;-66
2022/08/17 09:56:35;;;;;;;7.10;6.50;;;27.10;89.70;;;;;;4977624;28;20463;-66
2022/08/17 09:59:21;;;;;;;8.07;6.23;;;27.00;90.60;;;;;;4977872;28;20517;-66
2022/08/17 10:01:53;;;;;;;10.00;7.10;;;26.90;91.80;;;;;;4977596;28;20896;-66
2022/08/17 10:04:32;;;;;;;9.63;7.10;;;26.70;94.10;;;;;;4977802;28;20439;-66
2022/08/17 10:07:04;;;;;;;12.00;7.50;;;26.50;96.90;;;;;;4976465;28;20497;-66
2022/08/17 10:09:44;;;;;;;7.77;7.07;;;26.40;99.60;;;;;;4978659;28;20775;-66
2022/08/17 10:12:25;;;;;;;19.80;7.80;;;26.30;99.90;;;;;;4977609;28;20474;-65
2022/08/17 10:15:03;;;;;;;9.67;8.50;;;26.20;99.90;;;;;;4977189;28;20439;-65
2022/08/17 10:17:39;;;;;;;7.90;7.30;;;26.00;99.90;;;;;;4977381;28;20435;-65
2022/08/17 10:20:12;;;;;;;8.67;7.70;;;25.80;99.90;;;;;;4977484;28;20442;-66
2022/08/17 10:28:22;;;;;;;9.03;8.17;;;25.40;99.90;;;;;;4977241;28;20961;-66
2022/08/17 10:30:53;;;;;;;11.73;9.67;;;25.20;99.90;;;;;;4977030;28;20474;-66
2022/08/17 10:33:23;;;;;;;10.40;9.30;;;25.00;99.90;;;;;;4977250;28;20447;-66
2022/08/17 10:35:57;;;;;;;11.63;10.53;;;24.90;99.90;;;;;;4977196;28;20459;-65
2022/08/17 10:38:32;;;;;;;11.73;10.40;;;24.80;99.90;;;;;;4977104;28;20476;-65
2022/08/17 10:41:06;;;;;;;10.37;9.20;;;24.60;99.90;;;;;;4976859;28;21000;-65
2022/08/17 10:43:43;;;;;;;11.70;10.60;;;24.50;99.90;;;;;;4976828;28;20536;-65
2022/08/17 10:46:15;;;;;;;11.87;10.63;;;24.20;99.90;;;;;;4976921;28;20914;-65
2022/08/17 10:48:42;;;;;;;11.30;9.00;;;24.10;99.90;;;;;;4976963;28;20470;-66
2022/08/17 10:51:11;;;;;;;9.33;7.30;;;24.10;99.90;;;;;;4976626;28;20478;-66
2022/08/17 10:53:52;;;;;;;10.57;9.40;;;24.00;99.90;;;;;;4976806;28;20529;-66
2022/08/17 10:56:24;;;;;;;8.60;8.03;;;24.00;99.90;;;;;;4976849;28;20458;-65
2022/08/17 10:58:53;;;;;;;11.20;10.20;;;24.10;99.90;;;;;;4977145;28;20442;-66
2022/08/17 11:01:42;;;;;;;12.80;10.37;;;24.00;99.90;;;;;;4976428;28;20917;-67
2022/08/17 11:04:24;;;;;;;14.83;10.60;;;24.00;99.90;;;;;;4976416;28;20490;-65
2022/08/17 11:07:00;;;;;;;13.90;9.53;;;23.90;99.90;;;;;;4976281;28;20993;-66
2022/08/17 11:09:36;;;;;;;10.40;9.70;;;23.90;99.90;;;;;;4976566;28;20802;-66
2022/08/17 11:12:11;;;;;;;11.90;10.57;;;23.90;99.90;;;;;;4976318;28;20482;-66
2022/08/17 11:14:54;;;;;;;8.03;7.50;;;23.90;99.90;;;;;;4976265;28;20442;-65
2022/08/17 11:17:42;;;;;;;7.90;7.30;;;23.90;99.90;;;;;;4976790;28;20435;-65
2022/08/17 11:20:40;;;;;;;7.60;7.10;;;23.90;99.90;;;;;;4975932;28;20443;-65
2022/08/17 11:23:38;;;;;;;6.97;6.27;;;23.90;99.90;;;;;;4975852;28;20927;-65
2022/08/17 11:26:24;;;;;;;6.77;6.27;;;23.80;99.90;;;;;;4976180;28;20939;-65
2022/08/17 11:29:00;;;;;;;6.33;5.83;;;23.70;99.90;;;;;;4976163;28;20473;-64
2022/08/17 11:31:33;;;;;;;6.40;5.80;;;23.70;99.90;;;;;;4976107;28;20501;-65
2022/08/17 11:34:05;;;;;;;8.03;6.00;;;23.50;99.90;;;;;;4976218;28;20439;-65
2022/08/17 11:37:06;;;;;;;5.67;5.23;;;23.40;99.90;;;;;;4976252;28;20840;-66
2022/08/17 11:39:51;;;;;;;12.47;6.33;;;23.30;99.90;;;;;;4971321;28;20457;-65
2022/08/17 11:42:30;;;;;;;6.77;6.20;;;23.30;99.90;;;;;;4976220;28;20478;-65
2022/08/17 11:45:03;;;;;;;4.73;4.37;;;23.30;99.90;;;;;;4976035;28;20438;-66
2022/08/17 11:53:53;;;;;;;7.00;5.93;;;23.40;99.90;;;;;;4976009;28;20914;-66
2022/08/17 11:56:37;;;;;;;7.13;6.53;;;23.50;99.90;;;;;;4968972;28;20446;-66
2022/08/17 11:59:42;;;;;;;6.87;6.17;;;23.60;99.90;;;;;;4964480;28;20451;-65
2022/08/17 12:02:47;;;;;;;9.30;6.77;;;23.60;99.90;;;;;;4975029;28;21084;-65
2022/08/17 12:05:34;;;;;;;6.80;6.30;;;23.70;99.90;;;;;;4972858;28;20537;-66
2022/08/17 12:08:16;;;;;;;7.10;6.60;;;23.80;99.90;;;;;;4975338;28;20533;-65
2022/08/17 12:10:56;;;;;;;7.10;6.57;;;23.90;99.90;;;;;;4975296;28;20482;-65
2022/08/17 12:13:23;;;;;;;11.27;6.70;;;24.00;99.90;;;;;;4975199;28;20803;-65
2022/08/17 12:15:55;;;;;;;7.23;6.60;;;23.90;99.90;;;;;;4975150;28;20797;-65
2022/08/17 12:18:26;;;;;;;7.07;6.50;;;23.90;99.90;;;;;;4975483;28;20435;-65
2022/08/17 12:21:23;;;;;;;7.47;6.83;;;23.90;99.90;;;;;;4975019;28;20516;-65
2022/08/17 12:23:56;;;;;;;7.63;7.03;;;24.00;99.90;;;;;;4975319;28;20451;-65
2022/08/17 12:26:29;;;;;;;12.67;8.17;;;24.10;99.90;;;;;;4975288;28;20439;-65
2022/08/17 12:28:59;;;;;;;8.97;8.10;;;24.30;99.90;;;;;;4975175;28;20467;-66
2022/08/17 12:31:31;;;;;;;8.73;6.80;;;24.40;99.90;;;;;;4974763;28;20478;-65
2022/08/17 12:33:59;;;;;;;7.60;6.90;;;24.60;99.90;;;;;;4974918;28;20537;-66
2022/08/17 12:36:28;;;;;;;8.00;7.20;;;24.90;99.90;;;;;;4974849;28;20961;-65
2022/08/17 12:39:00;;;;;;;7.70;6.93;;;25.10;99.90;;;;;;4974828;28;20960;-65
2022/08/17 12:41:37;;;;;;;8.70;7.20;;;25.40;99.90;;;;;;4975070;28;20903;-69
2022/08/17 12:44:08;;;;;;;7.60;7.00;;;25.50;99.90;;;;;;4975277;28;20445;-65
2022/08/17 12:46:48;;;;;;;7.10;6.60;;;25.60;99.90;;;;;;4975040;28;20501;-65
2022/08/17 12:49:26;;;;;;;9.70;7.00;;;25.70;99.90;;;;;;4974795;28;20973;-65
2022/08/17 12:52:05;;;;;;;7.40;6.70;;;25.70;99.90;;;;;;4975038;28;20478;-66
2022/08/17 12:54:40;;;;;;;7.77;7.17;;;25.70;99.90;;;;;;4975159;28;20439;-65
2022/08/17 12:57:12;;;;;;;6.27;5.87;;;25.80;99.90;;;;;;4974867;28;20784;-67
2022/08/17 12:59:41;;;;;;;7.90;7.20;;;26.00;99.90;;;;;;4974678;28;20941;-66
2022/08/17 13:02:19;;;;;;;7.03;6.53;;;26.10;99.90;;;;;;4974486;28;20486;-66
2022/08/17 13:04:46;;;;;;;7.60;6.93;;;26.10;99.90;;;;;;4974940;28;20450;-67
2022/08/17 13:07:29;;;;;;;7.03;6.30;;;26.00;99.90;;;;;;4974858;28;20459;-67
2022/08/17 13:09:56;;;;;;;6.50;6.10;;;26.10;99.90;;;;;;4974885;28;20803;-66
2022/08/17 13:12:30;;;;;;;8.90;6.67;;;26.20;99.90;;;;;;4974584;28;20986;-67
2022/08/17 13:14:57;;;;;;;6.60;6.10;;;26.10;99.90;;;;;;4974493;28;20910;-66
2022/08/17 13:17:31;;;;;;;6.50;5.97;;;26.20;99.90;;;;;;4975228;28;20764;-66
2022/08/17 13:19:58;;;;;;;6.43;5.93;;;26.30;99.90;;;;;;4974741;28;20435;-67
2022/08/17 13:22:29;;;;;;;6.50;5.90;;;26.40;99.90;;;;;;4974506;28;20888;-66
2022/08/17 13:25:02;;;;;;;5.90;5.50;;;26.40;99.90;;;;;;4974724;28;20493;-66
2022/08/17 13:27:31;;;;;;;6.60;6.03;;;26.50;99.90;;;;;;4974661;28;20443;-66
2022/08/17 13:30:00;;;;;;;6.37;5.77;;;26.60;99.90;;;;;;4974696;28;20455;-66
2022/08/17 13:32:38;;;;;;;5.87;5.47;;;26.80;99.90;;;;;;4974597;28;20475;-63
2022/08/17 13:35:33;;;;;;;5.73;5.30;;;27.00;99.90;;;;;;4974650;28;20442;-63
2022/08/17 13:38:04;;;;;;;5.77;5.27;;;27.40;99.90;;;;;;4974852;28;20929;-64
2022/08/17 13:40:38;;;;;;;5.00;4.60;;;27.70;99.90;;;;;;4974817;28;20509;-64
2022/08/17 13:43:05;;;;;;;5.47;5.00;;;28.20;99.90;;;;;;4978250;28;20198;-64
2022/08/17 13:45:51;;;;;;;5.97;5.57;;;28.60;99.90;;;;;;4978534;28;20464;-63
2022/08/17 13:48:27;;;;;;;5.37;5.00;;;28.50;99.90;;;;;;4978039;28;20505;-65
2022/08/17 13:51:14;;;;;;;5.10;4.70;;;28.30;99.90;;;;;;4978767;28;20480;-65
2022/08/17 13:53:56;;;;;;;5.43;5.13;;;28.50;99.90;;;;;;4978314;28;20931;-65
2022/08/17 13:56:33;;;;;;;5.03;4.73;;;28.70;99.40;;;;;;4978315;28;20449;-64
2022/08/17 13:59:02;;;;;;;5.27;4.77;;;28.90;97.50;;;;;;4978525;28;20435;-64
2022/08/17 14:01:32;;;;;;;4.73;4.50;;;29.30;96.10;;;;;;4978622;28;20486;-64
2022/08/17 14:04:01;;;;;;;5.33;5.03;;;29.60;94.50;;;;;;4977781;28;20459;-64
2022/08/17 14:06:32;;;;;;;5.00;4.63;;;29.80;92.50;;;;;;4977676;28;20558;-64
2022/08/17 14:09:03;;;;;;;6.73;5.10;;;30.10;90.30;;;;;;4977646;28;20473;-63
2022/08/17 14:11:30;;;;;;;4.73;4.33;;;30.20;90.20;;;;;;4977278;28;20478;-63
2022/08/17 14:13:57;;;;;;;4.63;4.33;;;30.40;88.20;;;;;;4977581;28;20465;-63
2022/08/17 14:16:24;;;;;;;11.93;5.37;;;30.50;83.10;;;;;;4977495;28;20481;-64
2022/08/17 14:18:50;;;;;;;5.10;4.60;;;30.50;81.10;;;;;;4977537;28;20454;-64
2022/08/17 14:21:17;;;;;;;6.90;4.40;;;30.50;76.80;;;;;;4977400;28;20478;-64
2022/08/17 14:23:44;;;;;;;6.30;4.27;;;30.60;79.00;;;;;;4977372;28;20484;-64
2022/08/17 14:26:12;;;;;;;10.63;4.73;;;30.50;71.20;;;;;;4977274;28;20466;-63
2022/08/17 14:28:39;;;;;;;6.37;4.80;;;30.60;76.10;;;;;;4977435;28;20478;-64
2022/08/17 14:31:09;;;;;;;7.03;4.40;;;30.60;69.70;;;;;;4977726;28;20484;-64
2022/08/17 14:33:37;;;;;;;6.73;4.60;;;30.60;69.50;;;;;;4977185;28;20517;-63
2022/08/17 14:36:04;;;;;;;4.27;3.97;;;30.50;66.50;;;;;;4977246;28;20567;-64
2022/08/17 14:38:31;;;;;;;4.57;4.13;;;30.40;66.30;;;;;;4977403;28;20446;-64
2022/08/17 14:40:58;;;;;;;7.83;4.73;;;30.30;63.10;;;;;;4977287;28;20474;-63
2022/08/17 14:43:26;;;;;;;4.57;4.27;;;30.20;63.60;;;;;;4977434;28;20563;-63
2022/08/17 14:45:52;;;;;;;4.53;4.20;;;30.20;65.60;;;;;;4977530;28;20450;-64
2022/08/17 14:48:20;;;;;;;10.70;4.93;;;30.20;67.60;;;;;;4976856;28;20548;-65
2022/08/17 14:50:46;;;;;;;4.60;4.30;;;30.00;68.40;;;;;;4976795;28;20482;-65
2022/08/17 14:53:15;;;;;;;4.63;4.30;;;30.00;72.20;;;;;;4976116;28;20461;-64
2022/08/17 14:55:44;;;;;;;4.73;4.43;;;30.00;64.10;;;;;;4976702;28;20486;-65
2022/08/17 14:58:11;;;;;;;4.73;4.33;;;29.90;63.00;;;;;;4976573;28;20458;-65
2022/08/17 15:00:42;;;;;;;3.80;3.60;;;29.90;63.50;;;;;;4976081;28;20849;-65
2022/08/17 15:03:10;;;;;;;5.00;4.70;;;29.90;65.10;;;;;;4976524;28;20506;-65
2022/08/17 15:05:38;;;;;;;4.50;4.20;;;29.90;65.70;;;;;;4976569;28;20455;-64
2022/08/17 15:08:06;;;;;;;4.70;4.30;;;30.00;62.70;;;;;;4976365;28;20549;-64
2022/08/17 15:10:34;;;;;;;4.40;4.10;;;30.00;66.10;;;;;;4976390;28;20455;-64
2022/08/17 15:13:01;;;;;;;4.30;4.00;;;30.00;63.00;;;;;;4976445;28;20494;-64
2022/08/17 15:15:28;;;;;;;4.60;4.20;;;30.00;63.50;;;;;;4976466;28;20450;-64
2022/08/17 15:17:57;;;;;;;4.10;3.90;;;29.90;65.10;;;;;;4976584;28;20454;-64
2022/08/17 15:20:27;;;;;;;4.23;4.03;;;29.90;66.00;;;;;;4975857;28;20509;-64
2022/08/17 15:22:55;;;;;;;5.20;4.87;;;29.80;66.80;;;;;;4975924;28;20777;-63
2022/08/17 15:25:23;;;;;;;4.10;3.87;;;29.80;65.70;;;;;;4976256;28;20441;-64
2022/08/17 15:27:49;;;;;;;8.50;6.20;;;29.80;66.50;;;;;;4976278;28;20461;-64
2022/08/17 15:30:16;;;;;;;5.70;5.20;;;29.80;66.70;;;;;;4975653;28;20457;-64
2022/08/17 15:32:44;;;;;;;4.93;4.60;;;29.70;68.60;;;;;;4976276;28;20195;-64
2022/08/17 15:35:13;;;;;;;6.27;5.77;;;29.60;69.50;;;;;;4975898;28;20509;-64
2022/08/17 15:37:41;;;;;;;7.30;5.27;;;29.50;75.20;;;;;;4975922;28;20466;-64
2022/08/17 15:40:10;;;;;;;5.10;4.70;;;29.40;75.80;;;;;;4975983;28;20481;-63
2022/08/17 15:42:36;;;;;;;7.17;4.80;;;29.40;72.00;;;;;;4975832;28;20481;-65
2022/08/17 15:45:07;;;;;;;9.97;5.13;;;29.30;73.80;;;;;;4975982;28;20450;-64
2022/08/17 15:47:34;;;;;;;6.57;4.27;;;29.40;76.20;;;;;;4975945;28;20479;-63
2022/08/17 15:50:00;;;;;;;5.93;4.80;;;29.30;79.30;;;;;;4975294;28;20478;-63
2022/08/17 15:52:29;;;;;;;4.73;4.37;;;29.30;75.60;;;;;;4975637;28;20483;-66
2022/08/17 15:54:58;;;;;;;5.00;4.70;;;29.20;76.60;;;;;;4975568;28;20468;-66
2022/08/17 15:57:25;;;;;;;4.47;4.17;;;29.20;73.40;;;;;;4975759;28;20458;-65
2022/08/17 15:59:53;;;;;;;5.03;4.73;;;29.10;74.70;;;;;;4975340;28;20768;-66
2022/08/17 16:02:24;;;;;;;5.23;4.73;;;29.00;73.30;;;;;;4975120;28;20482;-66
2022/08/17 16:04:51;;;;;;;5.17;4.77;;;28.80;74.30;;;;;;4974750;28;20443;-66
2022/08/17 16:07:19;;;;;;;5.43;5.13;;;28.80;77.00;;;;;;4976019;28;20509;-67
2022/08/17 16:09:49;;;;;;;5.03;4.70;;;28.70;77.20;;;;;;4975088;28;20521;-67
2022/08/17 16:12:18;;;;;;;5.57;5.07;;;28.60;78.00;;;;;;4975262;28;20479;-66
2022/08/17 16:14:47;;;;;;;5.70;5.30;;;28.60;78.80;;;;;;4975279;28;20827;-66
2022/08/17 16:17:14;;;;;;;5.20;4.90;;;28.60;81.40;;;;;;4975678;28;20466;-66
2022/08/17 16:19:41;;;;;;;5.80;5.40;;;28.50;81.60;;;;;;4975403;28;20863;-66
2022/08/17 16:22:11;;;;;;;7.47;5.23;;;28.50;82.50;;;;;;4975188;28;20470;-66
2022/08/17 16:24:47;;;;;;;5.13;4.73;;;28.40;81.10;;;;;;4974955;28;20446;-66
2022/08/17 16:27:14;;;;;;;5.30;4.80;;;28.30;80.90;;;;;;4975275;28;20439;-66
2022/08/17 16:29:41;;;;;;;5.17;4.77;;;28.20;80.10;;;;;;4975103;28;20482;-66
2022/08/17 16:32:12;;;;;;;4.37;4.07;;;28.20;79.90;;;;;;4974865;28;20943;-66
2022/08/17 16:34:40;;;;;;;5.37;4.97;;;28.10;79.50;;;;;;4975200;28;20569;-65
2022/08/17 16:37:08;;;;;;;5.40;5.00;;;28.10;79.30;;;;;;4975156;28;20470;-65
2022/08/17 16:39:35;;;;;;;7.60;5.47;;;28.00;79.50;;;;;;4975024;28;20542;-66
2022/08/17 16:42:04;;;;;;;5.43;5.03;;;28.00;78.10;;;;;;4974779;28;20530;-65
2022/08/17 16:44:32;;;;;;;6.03;4.77;;;27.90;78.50;;;;;;4975147;28;20454;-66
2022/08/17 16:46:59;;;;;;;5.50;5.13;;;27.90;78.50;;;;;;4974894;28;20458;-66
2022/08/17 16:49:27;;;;;;;6.00;5.40;;;27.90;78.60;;;;;;4974818;28;20532;-65
2022/08/17 16:51:59;;;;;;;5.50;5.10;;;27.90;77.90;;;;;;4975366;28;20567;-65
2022/08/17 16:54:26;;;;;;;5.90;5.43;;;27.90;78.10;;;;;;4974950;28;20526;-66
2022/08/17 16:56:53;;;;;;;5.43;5.13;;;27.90;79.70;;;;;;4974919;28;20466;-66
2022/08/17 16:59:21;;;;;;;5.67;5.23;;;27.90;80.40;;;;;;4974667;28;20447;-66
2022/08/17 17:01:47;;;;;;;7.13;6.17;;;27.80;82.20;;;;;;4974296;28;21032;-66
2022/08/17 17:04:16;;;;;;;8.30;7.27;;;27.80;83.50;;;;;;4974748;28;20850;-66
2022/08/17 17:06:56;;;;;;;11.23;6.10;;;27.70;84.60;;;;;;4974845;28;20459;-66
2022/08/17 17:09:28;;;;;;;7.33;5.37;;;27.60;85.80;;;;;;4974740;28;20470;-66
2022/08/17 17:11:59;;;;;;;5.73;5.30;;;27.50;87.50;;;;;;4974802;28;20474;-65
2022/08/17 17:14:32;;;;;;;8.20;5.67;;;27.30;88.90;;;;;;4974945;28;20446;-65
2022/08/17 17:17:04;;;;;;;9.17;6.00;;;27.20;90.00;;;;;;4977428;28;20446;-65
2022/08/17 17:19:37;;;;;;;7.33;5.83;;;27.10;90.60;;;;;;4979067;28;20435;-65
2022/08/17 17:22:13;;;;;;;6.23;5.63;;;27.00;91.00;;;;;;4978553;28;20482;-66
2022/08/17 17:24:49;;;;;;;10.53;5.60;;;26.90;91.50;;;;;;4978559;28;20497;-66
2022/08/17 17:27:23;;;;;;;10.93;5.27;;;26.80;92.00;;;;;;4978537;28;20446;-66
2022/08/17 17:30:01;;;;;;;6.93;6.20;;;26.70;92.40;;;;;;4977986;28;21023;-66